DEMAR EDHL-EDHL
Flight info
| Callsign | DEMAR |
|---|---|
| Flight time | N/A |
| Altitude | 8000 |
| Route | HAM2A/07 HAM |
| Aircraft | BT36/L-BDFGLORY/S |
Departure
| Time | 2026-04-21 19:49 |
|---|---|
| Airport | Lübeck Blankensee Airport (EDHL) |
Arrival
| Time | N/A |
|---|---|
| Airport | Lübeck Blankensee Airport (EDHL) |
| Time | Latitude | Longitude | Altitude | Speed | Heading |
|---|---|---|---|---|---|
| 2026-04-21 19:49 | 53.80600 | 10.71975 | 450 ft | 109 kts | 64° |
| 2026-04-21 19:49 | 53.80872 | 10.73353 | 756 ft | 134 kts | 75° |
| 2026-04-21 19:50 | 53.81026 | 10.74394 | 950 ft | 140 kts | 72° |
| 2026-04-21 19:50 | 53.81414 | 10.76535 | 1325 ft | 145 kts | 71° |
| 2026-04-21 19:50 | 53.81722 | 10.78172 | 1593 ft | 147 kts | 70° |
| 2026-04-21 19:50 | 53.82040 | 10.79820 | 1872 ft | 146 kts | 70° |
| 2026-04-21 19:51 | 53.82350 | 10.81423 | 2270 ft | 141 kts | 70° |
| 2026-04-21 19:51 | 53.82651 | 10.82994 | 2656 ft | 139 kts | 71° |
| 2026-04-21 19:51 | 53.82949 | 10.84546 | 3045 ft | 139 kts | 71° |
| 2026-04-21 19:51 | 53.83244 | 10.86101 | 3431 ft | 138 kts | 72° |
| 2026-04-21 19:52 | 53.83199 | 10.87679 | 3810 ft | 143 kts | 111° |
| 2026-04-21 19:52 | 53.82457 | 10.88830 | 4191 ft | 155 kts | 154° |
| 2026-04-21 19:52 | 53.81355 | 10.88977 | 4584 ft | 161 kts | 173° |
| 2026-04-21 19:52 | 53.80231 | 10.89029 | 4958 ft | 165 kts | 172° |
| 2026-04-21 19:53 | 53.79001 | 10.89087 | 4988 ft | 185 kts | 173° |
| 2026-04-21 19:53 | 53.77685 | 10.89117 | 4986 ft | 188 kts | 177° |
| 2026-04-21 19:53 | 53.76571 | 10.88451 | 4969 ft | 161 kts | 209° |
| 2026-04-21 19:53 | 53.75815 | 10.87154 | 4969 ft | 153 kts | 237° |
| 2026-04-21 19:54 | 53.75463 | 10.85491 | 4972 ft | 150 kts | 262° |
| 2026-04-21 19:54 | 53.75288 | 10.83760 | 4976 ft | 149 kts | 261° |
| 2026-04-21 19:54 | 53.75103 | 10.82036 | 4973 ft | 149 kts | 262° |
| 2026-04-21 19:54 | 53.74924 | 10.80320 | 4971 ft | 148 kts | 262° |
| 2026-04-21 19:55 | 53.74747 | 10.78606 | 4970 ft | 148 kts | 262° |
| 2026-04-21 19:55 | 53.74569 | 10.76890 | 4972 ft | 148 kts | 262° |
| 2026-04-21 19:55 | 53.74392 | 10.75187 | 4972 ft | 147 kts | 261° |